Urb Sunrise, Puerto Rico
Current Conditions -  °F | °C
As of 12:53 PM on Thursday 30 Oct 2014 (Local Time) from TJNR Reporting Station
Overcast Overcast  
Wind Chill: 84°   Ceiling: 2800
Heat Index: 93°   Visibility: 10mi
Dew Point: 76°   Wind: 6mph
Humidity: 76%   Direction: 80°E
Pressure: 29.84"   Gusts: NA
Location:  18.1494°N, 65.8294°W
Report Text: TJNR 301653Z AUTO 08005KT 10SM BKN028 OVC036 29/24 A2984 RMK AO2 RAE04 SLP104 P0000 T02890244 $
Loading
Personal Weather Stations






























Interactive Weather Map
Tropical Storm Tracking
New forecast layout! Learn more

10-Day Weather Forecast

Advertisements
Track Severe Weather on mobile